USY629 PANC-PAEI
Flight info
| Callsign | USY629 |
|---|---|
| Flight time | 0h 48m |
| Altitude | 34000 |
| Route | TED J115 FAI/N0380F170 T381 CHATA EYEGO FALCO5 |
| Aircraft | A343/H-SDE2E3FGHIJ4J5M1RWXY/LB1D1 |
Departure
| Time | 2026-05-06 00:54 |
|---|---|
| Airport | Ted Stevens Anchorage International Airport (PANC) |
Arrival
| Time | 2026-05-06 01:43 |
|---|---|
| Airport | Eielson Air Force Base (PAEI) |
| Time | Latitude | Longitude | Altitude | Speed | Heading |
|---|---|---|---|---|---|
| 2026-05-06 00:02 | 61.19750 | -150.00787 | 122 ft | 0 kts | 168° |
| 2026-05-06 00:43 | 61.19773 | -150.00794 | 119 ft | 4 kts | 179° |
| 2026-05-06 00:43 | 61.19799 | -150.00789 | 124 ft | 4 kts | 199° |
| 2026-05-06 00:44 | 61.19821 | -150.00763 | 119 ft | 4 kts | 232° |
| 2026-05-06 00:44 | 61.19829 | -150.00737 | 119 ft | 0 kts | 255° |
| 2026-05-06 00:44 | 61.19829 | -150.00738 | 119 ft | 0 kts | 255° |
| 2026-05-06 00:49 | 61.19827 | -150.00753 | 119 ft | 4 kts | 255° |
| 2026-05-06 00:50 | 61.19825 | -150.00766 | 119 ft | 0 kts | 255° |
| 2026-05-06 00:50 | 61.19821 | -150.00799 | 119 ft | 5 kts | 255° |
| 2026-05-06 00:50 | 61.19806 | -150.00909 | 119 ft | 10 kts | 255° |
| 2026-05-06 00:50 | 61.19758 | -150.00983 | 122 ft | 9 kts | 176° |
| 2026-05-06 00:51 | 61.19694 | -150.00951 | 121 ft | 11 kts | 165° |
| 2026-05-06 00:51 | 61.19621 | -150.00909 | 120 ft | 10 kts | 165° |
| 2026-05-06 00:51 | 61.19559 | -150.00910 | 123 ft | 8 kts | 208° |
| 2026-05-06 00:51 | 61.19539 | -150.00986 | 121 ft | 0 kts | 251° |
| 2026-05-06 00:52 | 61.19538 | -150.00986 | 121 ft | 0 kts | 251° |
| 2026-05-06 00:52 | 61.19536 | -150.01003 | 121 ft | 3 kts | 252° |
| 2026-05-06 00:52 | 61.19525 | -150.01077 | 121 ft | 8 kts | 254° |
| 2026-05-06 00:52 | 61.19491 | -150.01179 | 120 ft | 9 kts | 197° |
| 2026-05-06 00:53 | 61.19454 | -150.01166 | 120 ft | 0 kts | 165° |
| 2026-05-06 00:53 | 61.19285 | -150.01072 | 121 ft | 55 kts | 165° |
| 2026-05-06 00:53 | 61.18732 | -150.00762 | 123 ft | 107 kts | 165° |
| 2026-05-06 00:54 | 61.17862 | -150.00276 | 120 ft | 150 kts | 165° |
| 2026-05-06 00:54 | 61.16765 | -149.99695 | 419 ft | 163 kts | 167° |
| 2026-05-06 00:54 | 61.15621 | -149.99579 | 791 ft | 181 kts | 196° |
| 2026-05-06 00:54 | 61.14523 | -150.01060 | 1292 ft | 192 kts | 219° |
| 2026-05-06 00:55 | 61.13439 | -150.02931 | 1659 ft | 218 kts | 217° |
| 2026-05-06 00:55 | 61.12164 | -150.04966 | 2115 ft | 242 kts | 215° |
| 2026-05-06 00:55 | 61.10775 | -150.07045 | 2895 ft | 250 kts | 214° |
| 2026-05-06 00:55 | 61.09371 | -150.09247 | 3782 ft | 256 kts | 221° |
| 2026-05-06 00:56 | 61.08279 | -150.12186 | 4708 ft | 263 kts | 242° |
| 2026-05-06 00:56 | 61.07882 | -150.15893 | 5591 ft | 271 kts | 271° |
| 2026-05-06 00:56 | 61.08472 | -150.19535 | 6446 ft | 278 kts | 304° |
| 2026-05-06 00:56 | 61.09987 | -150.22063 | 7291 ft | 281 kts | 339° |
| 2026-05-06 00:57 | 61.11904 | -150.22641 | 8155 ft | 281 kts | 4° |
| 2026-05-06 00:57 | 61.13807 | -150.22036 | 8991 ft | 282 kts | 17° |
| 2026-05-06 00:57 | 61.15633 | -150.20563 | 9806 ft | 283 kts | 29° |
| 2026-05-06 00:57 | 61.17283 | -150.18283 | 10399 ft | 291 kts | 41° |
| 2026-05-06 00:58 | 61.18732 | -150.15187 | 10706 ft | 308 kts | 53° |
| 2026-05-06 00:58 | 61.19881 | -150.11313 | 10974 ft | 324 kts | 66° |
| 2026-05-06 00:58 | 61.20635 | -150.06788 | 11233 ft | 340 kts | 79° |
| 2026-05-06 00:58 | 61.20908 | -150.01823 | 11498 ft | 354 kts | 91° |
| 2026-05-06 00:59 | 61.20637 | -149.96699 | 11936 ft | 362 kts | 104° |
| 2026-05-06 00:59 | 61.19813 | -149.91738 | 12519 ft | 366 kts | 117° |
| 2026-05-06 00:59 | 61.18477 | -149.87236 | 13153 ft | 369 kts | 129° |
| 2026-05-06 00:59 | 61.16688 | -149.83418 | 13780 ft | 371 kts | 142° |
| 2026-05-06 01:00 | 61.14532 | -149.80478 | 14346 ft | 374 kts | 154° |
| 2026-05-06 01:00 | 61.12094 | -149.78551 | 14922 ft | 377 kts | 166° |
| 2026-05-06 01:00 | 61.09497 | -149.77765 | 15523 ft | 380 kts | 179° |
| 2026-05-06 01:00 | 61.06855 | -149.78157 | 16102 ft | 383 kts | 191° |
| 2026-05-06 01:01 | 61.04296 | -149.79731 | 16685 ft | 386 kts | 203° |
| 2026-05-06 01:01 | 61.01942 | -149.82431 | 17266 ft | 389 kts | 216° |
| 2026-05-06 01:01 | 60.99913 | -149.86142 | 17870 ft | 392 kts | 228° |
| 2026-05-06 01:01 | 60.98309 | -149.90704 | 18420 ft | 396 kts | 240° |
| 2026-05-06 01:02 | 60.97213 | -149.95910 | 18942 ft | 398 kts | 252° |
| 2026-05-06 01:02 | 60.96534 | -150.01446 | 19479 ft | 401 kts | 260° |
| 2026-05-06 01:02 | 60.96354 | -150.07194 | 19986 ft | 404 kts | 273° |
| 2026-05-06 01:02 | 60.96928 | -150.12838 | 20493 ft | 408 kts | 290° |
| 2026-05-06 01:03 | 60.98356 | -150.17921 | 21016 ft | 413 kts | 309° |
| 2026-05-06 01:03 | 61.00528 | -150.21817 | 21529 ft | 418 kts | 327° |
| 2026-05-06 01:03 | 61.03222 | -150.24115 | 22030 ft | 424 kts | 346° |
| 2026-05-06 01:03 | 61.06175 | -150.24594 | 22520 ft | 430 kts | 2° |
| 2026-05-06 01:04 | 61.09141 | -150.23643 | 22995 ft | 435 kts | 12° |
| 2026-05-06 01:04 | 61.12066 | -150.21939 | 23427 ft | 438 kts | 16° |
| 2026-05-06 01:04 | 61.14981 | -150.19986 | 23792 ft | 442 kts | 17° |
| 2026-05-06 01:04 | 61.17919 | -150.18034 | 24136 ft | 445 kts | 15° |
| 2026-05-06 01:05 | 61.20891 | -150.16177 | 24483 ft | 448 kts | 14° |
| 2026-05-06 01:05 | 61.23897 | -150.14425 | 24818 ft | 451 kts | 13° |
| 2026-05-06 01:05 | 61.26936 | -150.12746 | 25152 ft | 453 kts | 13° |
| 2026-05-06 01:05 | 61.30005 | -150.11105 | 25474 ft | 456 kts | 13° |
| 2026-05-06 01:06 | 61.33093 | -150.09475 | 25802 ft | 459 kts | 13° |
| 2026-05-06 01:06 | 61.36160 | -150.07860 | 26127 ft | 462 kts | 13° |
| 2026-05-06 01:06 | 61.39336 | -150.06182 | 26353 ft | 467 kts | 13° |
| 2026-05-06 01:06 | 61.42457 | -150.04523 | 26635 ft | 471 kts | 13° |
| 2026-05-06 01:07 | 61.45642 | -150.02821 | 26981 ft | 473 kts | 13° |
| 2026-05-06 01:07 | 61.48833 | -150.01108 | 27302 ft | 475 kts | 13° |
| 2026-05-06 01:07 | 61.52044 | -149.99379 | 27612 ft | 478 kts | 13° |
| 2026-05-06 01:07 | 61.55268 | -149.97639 | 27898 ft | 480 kts | 13° |
| 2026-05-06 01:08 | 61.58511 | -149.95888 | 28188 ft | 483 kts | 13° |
| 2026-05-06 01:08 | 61.61771 | -149.94129 | 28460 ft | 485 kts | 13° |
| 2026-05-06 01:08 | 61.65051 | -149.92352 | 28737 ft | 487 kts | 13° |
| 2026-05-06 01:08 | 61.68344 | -149.90563 | 29013 ft | 490 kts | 13° |
| 2026-05-06 01:09 | 61.71646 | -149.88764 | 29324 ft | 491 kts | 13° |
| 2026-05-06 01:09 | 61.74952 | -149.86960 | 29709 ft | 490 kts | 13° |
| 2026-05-06 01:09 | 61.78248 | -149.85158 | 30049 ft | 490 kts | 13° |
| 2026-05-06 01:09 | 61.81552 | -149.83349 | 30311 ft | 490 kts | 13° |
| 2026-05-06 01:10 | 61.84851 | -149.81538 | 30547 ft | 491 kts | 13° |
| 2026-05-06 01:10 | 61.88171 | -149.79713 | 30786 ft | 492 kts | 13° |
| 2026-05-06 01:10 | 61.91484 | -149.77887 | 31035 ft | 493 kts | 13° |
| 2026-05-06 01:10 | 61.94811 | -149.76049 | 31280 ft | 494 kts | 13° |
| 2026-05-06 01:11 | 61.98135 | -149.74209 | 31530 ft | 494 kts | 13° |
| 2026-05-06 01:11 | 62.01462 | -149.72363 | 31770 ft | 495 kts | 13° |
| 2026-05-06 01:11 | 62.04801 | -149.70505 | 32032 ft | 496 kts | 13° |
| 2026-05-06 01:11 | 62.08141 | -149.68643 | 32281 ft | 496 kts | 13° |
| 2026-05-06 01:12 | 62.11477 | -149.66779 | 32525 ft | 497 kts | 13° |
| 2026-05-06 01:12 | 62.14828 | -149.64903 | 32750 ft | 498 kts | 13° |
| 2026-05-06 01:12 | 62.18182 | -149.63020 | 33006 ft | 498 kts | 13° |
| 2026-05-06 01:12 | 62.21518 | -149.61143 | 33323 ft | 497 kts | 13° |
| 2026-05-06 01:13 | 62.24870 | -149.59253 | 33576 ft | 497 kts | 13° |
| 2026-05-06 01:13 | 62.28220 | -149.57361 | 33758 ft | 499 kts | 13° |
| 2026-05-06 01:13 | 62.31593 | -149.55451 | 33790 ft | 504 kts | 14° |
| 2026-05-06 01:14 | 62.41755 | -149.49667 | 33795 ft | 502 kts | 14° |
| 2026-05-06 01:14 | 62.48505 | -149.45802 | 33796 ft | 502 kts | 14° |
| 2026-05-06 01:15 | 62.55261 | -149.41916 | 33800 ft | 502 kts | 14° |
| 2026-05-06 01:15 | 62.62008 | -149.38018 | 33803 ft | 502 kts | 14° |
| 2026-05-06 01:16 | 62.68770 | -149.34092 | 33805 ft | 503 kts | 14° |
| 2026-05-06 01:16 | 62.75528 | -149.30150 | 33806 ft | 503 kts | 14° |
| 2026-05-06 01:17 | 62.82283 | -149.26190 | 33804 ft | 503 kts | 14° |
| 2026-05-06 01:17 | 62.88866 | -149.21090 | 33639 ft | 501 kts | 24° |
| 2026-05-06 01:18 | 62.92018 | -149.17810 | 32893 ft | 502 kts | 25° |
| 2026-05-06 01:18 | 62.95165 | -149.14425 | 32145 ft | 504 kts | 26° |
| 2026-05-06 01:18 | 62.98306 | -149.11011 | 31496 ft | 504 kts | 26° |
| 2026-05-06 01:18 | 63.01448 | -149.07579 | 30863 ft | 503 kts | 26° |
| 2026-05-06 01:19 | 63.04580 | -149.04145 | 30244 ft | 502 kts | 26° |
| 2026-05-06 01:19 | 63.07698 | -149.00717 | 29563 ft | 500 kts | 26° |
| 2026-05-06 01:19 | 63.10805 | -148.97291 | 28783 ft | 499 kts | 26° |
| 2026-05-06 01:19 | 63.13910 | -148.93859 | 28032 ft | 497 kts | 26° |
| 2026-05-06 01:20 | 63.16989 | -148.90446 | 27371 ft | 494 kts | 26° |
| 2026-05-06 01:20 | 63.20052 | -148.87043 | 26699 ft | 492 kts | 27° |
| 2026-05-06 01:20 | 63.23100 | -148.83648 | 26092 ft | 488 kts | 27° |
| 2026-05-06 01:20 | 63.26117 | -148.80280 | 25516 ft | 484 kts | 27° |
| 2026-05-06 01:21 | 63.29111 | -148.76930 | 24944 ft | 480 kts | 27° |
| 2026-05-06 01:21 | 63.32085 | -148.73594 | 24383 ft | 476 kts | 27° |
| 2026-05-06 01:21 | 63.35029 | -148.70284 | 23832 ft | 473 kts | 27° |
| 2026-05-06 01:21 | 63.37951 | -148.66991 | 23267 ft | 470 kts | 27° |
| 2026-05-06 01:22 | 63.40864 | -148.63702 | 22622 ft | 466 kts | 27° |
| 2026-05-06 01:22 | 63.43734 | -148.60453 | 22032 ft | 461 kts | 27° |
| 2026-05-06 01:22 | 63.46583 | -148.57221 | 21460 ft | 457 kts | 27° |
| 2026-05-06 01:22 | 63.49408 | -148.54008 | 20883 ft | 453 kts | 27° |
| 2026-05-06 01:23 | 63.52172 | -148.50859 | 20323 ft | 449 kts | 27° |
| 2026-05-06 01:23 | 63.54941 | -148.47696 | 19765 ft | 446 kts | 27° |
| 2026-05-06 01:23 | 63.57697 | -148.44542 | 19202 ft | 442 kts | 27° |
| 2026-05-06 01:23 | 63.60422 | -148.41417 | 18700 ft | 438 kts | 27° |
| 2026-05-06 01:24 | 63.63119 | -148.38319 | 18219 ft | 434 kts | 27° |
| 2026-05-06 01:24 | 63.65797 | -148.35233 | 17614 ft | 431 kts | 27° |
| 2026-05-06 01:24 | 63.68453 | -148.32165 | 16998 ft | 428 kts | 27° |
| 2026-05-06 01:24 | 63.71089 | -148.29116 | 16431 ft | 424 kts | 27° |
| 2026-05-06 01:25 | 63.73691 | -148.26100 | 16126 ft | 415 kts | 27° |
| 2026-05-06 01:25 | 63.76234 | -148.23145 | 16088 ft | 410 kts | 27° |
| 2026-05-06 01:25 | 63.78773 | -148.20189 | 16078 ft | 412 kts | 27° |
| 2026-05-06 01:25 | 63.81327 | -148.17215 | 16072 ft | 412 kts | 27° |
| 2026-05-06 01:26 | 63.83100 | -148.15448 | 16072 ft | 412 kts | 20° |
| 2026-05-06 01:26 | 63.85799 | -148.13354 | 15924 ft | 407 kts | 17° |
| 2026-05-06 01:26 | 63.88510 | -148.11476 | 15239 ft | 408 kts | 15° |
| 2026-05-06 01:26 | 63.91253 | -148.09730 | 14537 ft | 410 kts | 14° |
| 2026-05-06 01:27 | 63.93947 | -148.08101 | 14251 ft | 402 kts | 14° |
| 2026-05-06 01:27 | 63.96675 | -148.06468 | 14004 ft | 399 kts | 14° |
| 2026-05-06 01:27 | 63.99363 | -148.04840 | 13758 ft | 399 kts | 14° |
| 2026-05-06 01:27 | 64.02039 | -148.03201 | 13503 ft | 398 kts | 14° |
| 2026-05-06 01:28 | 64.04708 | -148.01555 | 13203 ft | 397 kts | 14° |
| 2026-05-06 01:28 | 64.07369 | -147.99907 | 12936 ft | 395 kts | 14° |
| 2026-05-06 01:28 | 64.10015 | -147.98262 | 12677 ft | 393 kts | 14° |
| 2026-05-06 01:28 | 64.12639 | -147.96626 | 12392 ft | 391 kts | 14° |
| 2026-05-06 01:29 | 64.15259 | -147.94989 | 12110 ft | 389 kts | 14° |
| 2026-05-06 01:29 | 64.17868 | -147.93355 | 11846 ft | 388 kts | 14° |
| 2026-05-06 01:29 | 64.20463 | -147.91726 | 11581 ft | 386 kts | 14° |
| 2026-05-06 01:29 | 64.23019 | -147.90119 | 11312 ft | 385 kts | 14° |
| 2026-05-06 01:30 | 64.25594 | -147.88496 | 11056 ft | 383 kts | 14° |
| 2026-05-06 01:30 | 64.28162 | -147.86875 | 10797 ft | 382 kts | 14° |
| 2026-05-06 01:30 | 64.30744 | -147.85241 | 10544 ft | 380 kts | 14° |
| 2026-05-06 01:30 | 64.33294 | -147.83625 | 10286 ft | 378 kts | 14° |
| 2026-05-06 01:31 | 64.35802 | -147.82031 | 10150 ft | 368 kts | 14° |
| 2026-05-06 01:31 | 64.38233 | -147.80482 | 10045 ft | 355 kts | 14° |
| 2026-05-06 01:31 | 64.40575 | -147.78988 | 9925 ft | 343 kts | 14° |
| 2026-05-06 01:31 | 64.42806 | -147.77563 | 9819 ft | 332 kts | 14° |
| 2026-05-06 01:32 | 64.44996 | -147.76161 | 9707 ft | 322 kts | 14° |
| 2026-05-06 01:32 | 64.47125 | -147.74798 | 9588 ft | 312 kts | 14° |
| 2026-05-06 01:32 | 64.49188 | -147.73474 | 9465 ft | 304 kts | 14° |
| 2026-05-06 01:32 | 64.51199 | -147.72181 | 9331 ft | 296 kts | 14° |
| 2026-05-06 01:33 | 64.53180 | -147.70908 | 9090 ft | 296 kts | 14° |
| 2026-05-06 01:33 | 64.55170 | -147.69627 | 8853 ft | 296 kts | 13° |
| 2026-05-06 01:33 | 64.57148 | -147.68351 | 8587 ft | 295 kts | 13° |
| 2026-05-06 01:33 | 64.59121 | -147.67076 | 8338 ft | 294 kts | 13° |
| 2026-05-06 01:34 | 64.61089 | -147.65801 | 8074 ft | 293 kts | 14° |
| 2026-05-06 01:34 | 64.63048 | -147.64532 | 7823 ft | 292 kts | 13° |
| 2026-05-06 01:34 | 64.65027 | -147.63658 | 7566 ft | 288 kts | 4° |
| 2026-05-06 01:34 | 64.67015 | -147.63105 | 7311 ft | 287 kts | 4° |
| 2026-05-06 01:35 | 64.68979 | -147.62601 | 7173 ft | 281 kts | 4° |
| 2026-05-06 01:35 | 64.70904 | -147.61850 | 6920 ft | 281 kts | 9° |
| 2026-05-06 01:35 | 64.72802 | -147.60677 | 6620 ft | 284 kts | 15° |
| 2026-05-06 01:35 | 64.74663 | -147.59069 | 6365 ft | 284 kts | 20° |
| 2026-05-06 01:36 | 64.76425 | -147.57096 | 6245 ft | 277 kts | 26° |
| 2026-05-06 01:36 | 64.78061 | -147.54845 | 6139 ft | 269 kts | 31° |
| 2026-05-06 01:36 | 64.79571 | -147.52356 | 6034 ft | 262 kts | 36° |
| 2026-05-06 01:36 | 64.80943 | -147.49688 | 5878 ft | 249 kts | 40° |
| 2026-05-06 01:37 | 64.82145 | -147.46959 | 5720 ft | 231 kts | 45° |
| 2026-05-06 01:37 | 64.83181 | -147.44257 | 5627 ft | 215 kts | 49° |
| 2026-05-06 01:37 | 64.84083 | -147.41568 | 5386 ft | 206 kts | 53° |
| 2026-05-06 01:37 | 64.84749 | -147.38622 | 5022 ft | 202 kts | 72° |
| 2026-05-06 01:38 | 64.84931 | -147.35396 | 4628 ft | 199 kts | 96° |
| 2026-05-06 01:38 | 64.84586 | -147.32287 | 4185 ft | 196 kts | 118° |
| 2026-05-06 01:38 | 64.83737 | -147.29885 | 3799 ft | 189 kts | 146° |
| 2026-05-06 01:38 | 64.82664 | -147.28147 | 3393 ft | 187 kts | 151° |
| 2026-05-06 01:39 | 64.81560 | -147.26516 | 3000 ft | 187 kts | 151° |
| 2026-05-06 01:39 | 64.80470 | -147.24901 | 2660 ft | 184 kts | 151° |
| 2026-05-06 01:39 | 64.79384 | -147.23278 | 2266 ft | 185 kts | 150° |
| 2026-05-06 01:39 | 64.78318 | -147.21674 | 2097 ft | 176 kts | 151° |
| 2026-05-06 01:40 | 64.77356 | -147.20202 | 2081 ft | 155 kts | 150° |
| 2026-05-06 01:40 | 64.76439 | -147.18993 | 2085 ft | 151 kts | 160° |
| 2026-05-06 01:40 | 64.75458 | -147.18030 | 1915 ft | 152 kts | 163° |
| 2026-05-06 01:40 | 64.74467 | -147.17182 | 1727 ft | 151 kts | 164° |
| 2026-05-06 01:41 | 64.73496 | -147.16312 | 1528 ft | 147 kts | 166° |
| 2026-05-06 01:41 | 64.72554 | -147.15474 | 1341 ft | 143 kts | 163° |
| 2026-05-06 01:41 | 64.71613 | -147.14637 | 1170 ft | 146 kts | 163° |
| 2026-05-06 01:41 | 64.70659 | -147.13784 | 1006 ft | 147 kts | 163° |
| 2026-05-06 01:42 | 64.69704 | -147.12937 | 827 ft | 146 kts | 163° |
| 2026-05-06 01:42 | 64.68759 | -147.12090 | 662 ft | 146 kts | 165° |
| 2026-05-06 01:42 | 64.67820 | -147.11235 | 567 ft | 138 kts | 165° |
| 2026-05-06 01:42 | 64.67051 | -147.10582 | 568 ft | 98 kts | 160° |
| 2026-05-06 01:43 | 64.66585 | -147.10159 | 569 ft | 46 kts | 159° |
| 2026-05-06 01:43 | 64.66430 | -147.10021 | 569 ft | 14 kts | 155° |
| 2026-05-06 01:43 | 64.66394 | -147.09824 | 570 ft | 12 kts | 81° |
| 2026-05-06 01:43 | 64.66402 | -147.09745 | 569 ft | 0 kts | 74° |
| 2026-05-06 01:44 | 64.66400 | -147.09707 | 566 ft | 8 kts | 101° |
| 2026-05-06 01:44 | 64.66358 | -147.09579 | 569 ft | 11 kts | 142° |
| 2026-05-06 01:45 | 64.66289 | -147.09494 | 570 ft | 12 kts | 156° |
| 2026-05-06 01:45 | 64.66204 | -147.09421 | 566 ft | 14 kts | 163° |
| 2026-05-06 01:45 | 64.66111 | -147.09334 | 571 ft | 15 kts | 155° |
| 2026-05-06 01:45 | 64.66009 | -147.09243 | 572 ft | 16 kts | 161° |
| 2026-05-06 01:46 | 64.65909 | -147.09202 | 572 ft | 14 kts | 199° |
| 2026-05-06 01:46 | 64.65900 | -147.09211 | 571 ft | 0 kts | 203° |
| 2026-05-06 01:46 | 64.65898 | -147.09213 | 570 ft | 1 kts | 200° |
| 2026-05-06 01:46 | 64.65896 | -147.09214 | 572 ft | 0 kts | 200° |